sensor_id;sensor_type;location;lat;lon;timestamp;P1;durP1;ratioP1;P2;durP2;ratioP2
52494;SDS011;38405;53.212;5.660;2023-04-29T00:01:15;24.25;;;11.27;;
52494;SDS011;38405;53.212;5.660;2023-04-29T00:03:40;22.85;;;12.00;;
52494;SDS011;38405;53.212;5.660;2023-04-29T00:06:06;23.48;;;12.32;;
52494;SDS011;38405;53.212;5.660;2023-04-29T00:08:32;23.42;;;12.23;;
52494;SDS011;38405;53.212;5.660;2023-04-29T00:10:57;27.63;;;12.85;;
52494;SDS011;38405;53.212;5.660;2023-04-29T00:13:23;23.02;;;11.55;;
52494;SDS011;38405;53.212;5.660;2023-04-29T00:15:50;25.17;;;13.15;;
52494;SDS011;38405;53.212;5.660;2023-04-29T00:18:15;27.98;;;12.60;;
52494;SDS011;38405;53.212;5.660;2023-04-29T00:20:41;24.55;;;12.20;;
52494;SDS011;38405;53.212;5.660;2023-04-29T00:23:07;24.48;;;13.75;;
52494;SDS011;38405;53.212;5.660;2023-04-29T00:25:33;31.90;;;13.40;;
52494;SDS011;38405;53.212;5.660;2023-04-29T00:27:59;30.70;;;13.70;;
52494;SDS011;38405;53.212;5.660;2023-04-29T00:30:26;23.55;;;13.43;;
52494;SDS011;38405;53.212;5.660;2023-04-29T00:32:53;34.17;;;14.50;;
52494;SDS011;38405;53.212;5.660;2023-04-29T00:35:19;24.70;;;14.82;;
52494;SDS011;38405;53.212;5.660;2023-04-29T00:37:45;27.75;;;13.35;;
52494;SDS011;38405;53.212;5.660;2023-04-29T00:40:11;25.17;;;14.60;;
52494;SDS011;38405;53.212;5.660;2023-04-29T00:42:40;26.50;;;16.05;;
52494;SDS011;38405;53.212;5.660;2023-04-29T00:45:06;31.83;;;14.07;;
52494;SDS011;38405;53.212;5.660;2023-04-29T00:47:33;22.35;;;13.57;;
52494;SDS011;38405;53.212;5.660;2023-04-29T00:49:58;27.45;;;14.48;;
52494;SDS011;38405;53.212;5.660;2023-04-29T00:52:24;22.92;;;13.50;;
52494;SDS011;38405;53.212;5.660;2023-04-29T00:54:53;26.55;;;13.60;;
52494;SDS011;38405;53.212;5.660;2023-04-29T00:57:19;29.88;;;13.35;;
52494;SDS011;38405;53.212;5.660;2023-04-29T00:59:46;31.83;;;13.70;;
52494;SDS011;38405;53.212;5.660;2023-04-29T01:02:12;24.38;;;14.07;;
52494;SDS011;38405;53.212;5.660;2023-04-29T01:04:38;25.67;;;12.93;;
52494;SDS011;38405;53.212;5.660;2023-04-29T01:07:14;26.85;;;13.98;;
52494;SDS011;38405;53.212;5.660;2023-04-29T01:10:28;24.17;;;12.80;;
52494;SDS011;38405;53.212;5.660;2023-04-29T01:15:27;27.33;;;12.93;;
52494;SDS011;38405;53.212;5.660;2023-04-29T01:18:04;23.05;;;12.98;;
52494;SDS011;38405;53.212;5.660;2023-04-29T01:20:36;28.58;;;13.20;;
52494;SDS011;38405;53.212;5.660;2023-04-29T01:23:03;26.10;;;13.55;;
52494;SDS011;38405;53.212;5.660;2023-04-29T01:25:29;23.02;;;13.70;;
52494;SDS011;38405;53.212;5.660;2023-04-29T01:44:48;22.10;;;13.38;;
52494;SDS011;38405;53.212;5.660;2023-04-29T01:47:17;29.13;;;15.07;;
52494;SDS011;38405;53.212;5.660;2023-04-29T01:49:43;21.17;;;13.93;;
52494;SDS011;38405;53.212;5.660;2023-04-29T01:52:10;21.25;;;13.23;;
52494;SDS011;38405;53.212;5.660;2023-04-29T01:54:37;22.88;;;13.63;;
52494;SDS011;38405;53.212;5.660;2023-04-29T01:57:03;26.13;;;12.18;;
52494;SDS011;38405;53.212;5.660;2023-04-29T01:59:29;25.52;;;13.45;;
52494;SDS011;38405;53.212;5.660;2023-04-29T02:01:54;18.55;;;12.13;;
52494;SDS011;38405;53.212;5.660;2023-04-29T02:04:23;27.65;;;13.57;;
52494;SDS011;38405;53.212;5.660;2023-04-29T02:06:50;22.52;;;13.00;;
52494;SDS011;38405;53.212;5.660;2023-04-29T02:09:16;20.63;;;12.63;;
52494;SDS011;38405;53.212;5.660;2023-04-29T02:11:43;24.13;;;13.32;;
52494;SDS011;38405;53.212;5.660;2023-04-29T02:14:08;19.33;;;12.75;;
52494;SDS011;38405;53.212;5.660;2023-04-29T02:16:34;22.25;;;13.35;;
52494;SDS011;38405;53.212;5.660;2023-04-29T02:18:59;25.13;;;13.45;;
52494;SDS011;38405;53.212;5.660;2023-04-29T02:21:25;22.63;;;12.63;;
52494;SDS011;38405;53.212;5.660;2023-04-29T02:23:51;22.77;;;13.52;;
52494;SDS011;38405;53.212;5.660;2023-04-29T02:26:18;26.63;;;13.90;;
52494;SDS011;38405;53.212;5.660;2023-04-29T02:28:44;28.23;;;13.48;;
52494;SDS011;38405;53.212;5.660;2023-04-29T02:31:10;23.67;;;12.90;;
52494;SDS011;38405;53.212;5.660;2023-04-29T02:33:36;25.40;;;14.63;;
52494;SDS011;38405;53.212;5.660;2023-04-29T02:36:02;25.75;;;13.15;;
52494;SDS011;38405;53.212;5.660;2023-04-29T02:38:28;23.73;;;13.00;;
52494;SDS011;38405;53.212;5.660;2023-04-29T02:40:53;26.10;;;13.98;;
52494;SDS011;38405;53.212;5.660;2023-04-29T02:43:19;31.05;;;14.13;;
52494;SDS011;38405;53.212;5.660;2023-04-29T02:45:45;22.83;;;13.65;;
52494;SDS011;38405;53.212;5.660;2023-04-29T02:48:10;26.80;;;12.95;;
52494;SDS011;38405;53.212;5.660;2023-04-29T02:50:36;29.85;;;13.48;;
52494;SDS011;38405;53.212;5.660;2023-04-29T02:53:01;26.27;;;13.50;;
52494;SDS011;38405;53.212;5.660;2023-04-29T02:55:27;23.00;;;13.82;;
52494;SDS011;38405;53.212;5.660;2023-04-29T02:57:53;28.33;;;13.80;;
52494;SDS011;38405;53.212;5.660;2023-04-29T03:00:18;29.38;;;13.80;;
52494;SDS011;38405;53.212;5.660;2023-04-29T03:02:45;27.77;;;13.93;;
52494;SDS011;38405;53.212;5.660;2023-04-29T03:05:10;28.00;;;14.90;;
52494;SDS011;38405;53.212;5.660;2023-04-29T03:07:36;25.75;;;13.13;;
52494;SDS011;38405;53.212;5.660;2023-04-29T03:10:02;25.02;;;14.27;;
52494;SDS011;38405;53.212;5.660;2023-04-29T03:12:28;23.60;;;13.07;;
52494;SDS011;38405;53.212;5.660;2023-04-29T03:14:54;26.33;;;12.68;;
52494;SDS011;38405;53.212;5.660;2023-04-29T03:17:19;20.90;;;11.75;;
52494;SDS011;38405;53.212;5.660;2023-04-29T03:19:46;20.35;;;11.45;;
52494;SDS011;38405;53.212;5.660;2023-04-29T03:22:12;22.92;;;10.38;;
52494;SDS011;38405;53.212;5.660;2023-04-29T03:24:37;19.02;;;10.18;;
52494;SDS011;38405;53.212;5.660;2023-04-29T03:27:03;19.88;;;9.98;;
52494;SDS011;38405;53.212;5.660;2023-04-29T03:29:29;19.10;;;9.57;;
52494;SDS011;38405;53.212;5.660;2023-04-29T03:31:58;22.77;;;10.52;;
52494;SDS011;38405;53.212;5.660;2023-04-29T03:34:24;17.55;;;9.57;;
52494;SDS011;38405;53.212;5.660;2023-04-29T03:36:50;22.80;;;10.93;;
52494;SDS011;38405;53.212;5.660;2023-04-29T03:39:16;19.55;;;9.15;;
52494;SDS011;38405;53.212;5.660;2023-04-29T03:41:42;18.20;;;8.98;;
52494;SDS011;38405;53.212;5.660;2023-04-29T03:44:08;15.13;;;8.52;;
52494;SDS011;38405;53.212;5.660;2023-04-29T03:46:33;18.92;;;8.48;;
52494;SDS011;38405;53.212;5.660;2023-04-29T03:48:59;14.95;;;8.00;;
52494;SDS011;38405;53.212;5.660;2023-04-29T03:51:25;19.77;;;8.75;;
52494;SDS011;38405;53.212;5.660;2023-04-29T03:53:52;14.85;;;8.52;;
52494;SDS011;38405;53.212;5.660;2023-04-29T03:56:20;17.17;;;7.85;;
52494;SDS011;38405;53.212;5.660;2023-04-29T03:58:47;14.60;;;8.63;;
52494;SDS011;38405;53.212;5.660;2023-04-29T04:01:13;19.27;;;7.97;;
52494;SDS011;38405;53.212;5.660;2023-04-29T04:03:39;15.48;;;7.93;;
52494;SDS011;38405;53.212;5.660;2023-04-29T04:06:05;22.50;;;8.93;;
52494;SDS011;38405;53.212;5.660;2023-04-29T04:08:30;20.33;;;8.30;;
52494;SDS011;38405;53.212;5.660;2023-04-29T04:10:56;17.88;;;7.32;;
52494;SDS011;38405;53.212;5.660;2023-04-29T04:13:27;16.30;;;8.05;;
52494;SDS011;38405;53.212;5.660;2023-04-29T04:15:55;14.23;;;8.05;;
52494;SDS011;38405;53.212;5.660;2023-04-29T04:18:21;13.55;;;7.57;;
52494;SDS011;38405;53.212;5.660;2023-04-29T04:20:47;17.90;;;7.40;;
52494;SDS011;38405;53.212;5.660;2023-04-29T04:23:13;16.27;;;7.80;;
52494;SDS011;38405;53.212;5.660;2023-04-29T04:25:48;12.75;;;7.40;;
52494;SDS011;38405;53.212;5.660;2023-04-29T04:28:13;17.75;;;7.35;;
52494;SDS011;38405;53.212;5.660;2023-04-29T04:30:39;18.23;;;7.53;;
52494;SDS011;38405;53.212;5.660;2023-04-29T04:33:05;21.98;;;8.05;;
52494;SDS011;38405;53.212;5.660;2023-04-29T04:35:31;15.07;;;7.57;;
52494;SDS011;38405;53.212;5.660;2023-04-29T04:37:57;25.63;;;7.65;;
52494;SDS011;38405;53.212;5.660;2023-04-29T04:40:23;14.70;;;6.75;;
52494;SDS011;38405;53.212;5.660;2023-04-29T04:42:48;10.38;;;6.95;;
52494;SDS011;38405;53.212;5.660;2023-04-29T04:45:14;19.13;;;7.20;;
52494;SDS011;38405;53.212;5.660;2023-04-29T04:47:40;13.30;;;6.43;;
52494;SDS011;38405;53.212;5.660;2023-04-29T04:50:06;11.38;;;6.53;;
52494;SDS011;38405;53.212;5.660;2023-04-29T04:52:33;16.15;;;6.63;;
52494;SDS011;38405;53.212;5.660;2023-04-29T04:54:58;25.65;;;7.43;;
52494;SDS011;38405;53.212;5.660;2023-04-29T04:57:24;19.20;;;7.18;;
52494;SDS011;38405;53.212;5.660;2023-04-29T04:59:50;16.02;;;6.32;;
52494;SDS011;38405;53.212;5.660;2023-04-29T05:02:16;19.00;;;5.80;;
52494;SDS011;38405;53.212;5.660;2023-04-29T05:04:41;12.13;;;5.65;;
52494;SDS011;38405;53.212;5.660;2023-04-29T05:07:07;20.65;;;6.40;;
52494;SDS011;38405;53.212;5.660;2023-04-29T05:09:33;13.00;;;6.15;;
52494;SDS011;38405;53.212;5.660;2023-04-29T05:11:58;15.65;;;6.32;;
52494;SDS011;38405;53.212;5.660;2023-04-29T05:14:24;19.58;;;6.57;;
52494;SDS011;38405;53.212;5.660;2023-04-29T05:16:50;16.75;;;6.13;;
52494;SDS011;38405;53.212;5.660;2023-04-29T05:19:17;15.23;;;5.72;;
52494;SDS011;38405;53.212;5.660;2023-04-29T05:21:43;15.85;;;6.43;;
52494;SDS011;38405;53.212;5.660;2023-04-29T05:24:08;13.15;;;6.55;;
52494;SDS011;38405;53.212;5.660;2023-04-29T05:26:34;17.42;;;6.85;;
52494;SDS011;38405;53.212;5.660;2023-04-29T05:29:00;11.77;;;7.43;;
52494;SDS011;38405;53.212;5.660;2023-04-29T05:31:25;16.75;;;7.70;;
52494;SDS011;38405;53.212;5.660;2023-04-29T05:33:52;17.63;;;7.38;;
52494;SDS011;38405;53.212;5.660;2023-04-29T05:36:18;14.25;;;7.55;;
52494;SDS011;38405;53.212;5.660;2023-04-29T05:38:44;16.63;;;6.93;;
52494;SDS011;38405;53.212;5.660;2023-04-29T05:41:10;11.02;;;6.65;;
52494;SDS011;38405;53.212;5.660;2023-04-29T05:43:35;13.82;;;6.70;;
52494;SDS011;38405;53.212;5.660;2023-04-29T05:46:01;17.20;;;6.90;;
52494;SDS011;38405;53.212;5.660;2023-04-29T05:48:27;16.33;;;6.80;;
52494;SDS011;38405;53.212;5.660;2023-04-29T05:50:53;13.63;;;6.35;;
52494;SDS011;38405;53.212;5.660;2023-04-29T05:53:19;24.70;;;6.88;;
52494;SDS011;38405;53.212;5.660;2023-04-29T05:55:45;15.52;;;6.50;;
52494;SDS011;38405;53.212;5.660;2023-04-29T05:58:11;21.55;;;5.72;;
52494;SDS011;38405;53.212;5.660;2023-04-29T06:00:38;13.55;;;5.65;;
52494;SDS011;38405;53.212;5.660;2023-04-29T06:03:04;15.52;;;5.00;;
52494;SDS011;38405;53.212;5.660;2023-04-29T06:05:30;10.75;;;4.97;;
52494;SDS011;38405;53.212;5.660;2023-04-29T06:07:56;13.07;;;5.50;;
52494;SDS011;38405;53.212;5.660;2023-04-29T06:10:22;9.63;;;5.05;;
52494;SDS011;38405;53.212;5.660;2023-04-29T06:12:48;13.65;;;5.45;;
52494;SDS011;38405;53.212;5.660;2023-04-29T06:15:15;14.50;;;5.30;;
52494;SDS011;38405;53.212;5.660;2023-04-29T06:17:41;11.68;;;5.53;;
52494;SDS011;38405;53.212;5.660;2023-04-29T06:20:07;14.05;;;5.90;;
52494;SDS011;38405;53.212;5.660;2023-04-29T06:22:34;11.63;;;5.25;;
52494;SDS011;38405;53.212;5.660;2023-04-29T06:24:59;15.32;;;5.45;;
52494;SDS011;38405;53.212;5.660;2023-04-29T06:27:25;11.27;;;5.40;;
52494;SDS011;38405;53.212;5.660;2023-04-29T06:29:51;9.85;;;5.05;;
52494;SDS011;38405;53.212;5.660;2023-04-29T06:32:17;15.75;;;5.85;;
52494;SDS011;38405;53.212;5.660;2023-04-29T06:34:42;11.13;;;5.68;;
52494;SDS011;38405;53.212;5.660;2023-04-29T06:37:09;10.63;;;5.07;;
52494;SDS011;38405;53.212;5.660;2023-04-29T06:39:35;12.00;;;5.53;;
52494;SDS011;38405;53.212;5.660;2023-04-29T06:42:00;11.40;;;4.82;;
52494;SDS011;38405;53.212;5.660;2023-04-29T06:44:27;16.90;;;4.78;;
52494;SDS011;38405;53.212;5.660;2023-04-29T06:46:53;11.10;;;4.82;;
52494;SDS011;38405;53.212;5.660;2023-04-29T06:49:18;11.60;;;4.60;;
52494;SDS011;38405;53.212;5.660;2023-04-29T06:51:44;13.25;;;5.32;;
52494;SDS011;38405;53.212;5.660;2023-04-29T06:54:10;9.50;;;5.10;;
52494;SDS011;38405;53.212;5.660;2023-04-29T06:56:35;7.53;;;4.78;;
52494;SDS011;38405;53.212;5.660;2023-04-29T06:59:01;13.35;;;4.80;;
52494;SDS011;38405;53.212;5.660;2023-04-29T07:01:28;12.02;;;4.20;;
52494;SDS011;38405;53.212;5.660;2023-04-29T07:03:54;10.07;;;4.47;;
52494;SDS011;38405;53.212;5.660;2023-04-29T07:06:20;12.55;;;5.00;;
52494;SDS011;38405;53.212;5.660;2023-04-29T07:08:46;8.25;;;4.63;;
52494;SDS011;38405;53.212;5.660;2023-04-29T07:11:11;12.77;;;4.53;;
52494;SDS011;38405;53.212;5.660;2023-04-29T07:13:37;9.32;;;4.35;;
52494;SDS011;38405;53.212;5.660;2023-04-29T07:16:03;11.85;;;5.00;;
52494;SDS011;38405;53.212;5.660;2023-04-29T07:18:29;10.98;;;4.95;;
52494;SDS011;38405;53.212;5.660;2023-04-29T07:20:59;7.68;;;4.63;;
52494;SDS011;38405;53.212;5.660;2023-04-29T07:23:25;10.27;;;4.50;;
52494;SDS011;38405;53.212;5.660;2023-04-29T07:25:51;8.80;;;4.55;;
52494;SDS011;38405;53.212;5.660;2023-04-29T07:28:16;14.20;;;4.95;;
52494;SDS011;38405;53.212;5.660;2023-04-29T07:30:42;7.72;;;4.22;;
52494;SDS011;38405;53.212;5.660;2023-04-29T07:33:08;10.20;;;4.60;;
52494;SDS011;38405;53.212;5.660;2023-04-29T07:35:34;10.23;;;4.00;;
52494;SDS011;38405;53.212;5.660;2023-04-29T07:37:59;9.43;;;4.50;;
52494;SDS011;38405;53.212;5.660;2023-04-29T07:40:25;9.18;;;4.80;;
52494;SDS011;38405;53.212;5.660;2023-04-29T07:42:51;7.85;;;4.22;;
52494;SDS011;38405;53.212;5.660;2023-04-29T07:45:16;7.80;;;4.38;;
52494;SDS011;38405;53.212;5.660;2023-04-29T07:47:42;10.80;;;4.93;;
52494;SDS011;38405;53.212;5.660;2023-04-29T07:50:08;7.93;;;4.55;;
52494;SDS011;38405;53.212;5.660;2023-04-29T07:52:34;8.18;;;4.50;;
52494;SDS011;38405;53.212;5.660;2023-04-29T07:55:00;9.63;;;4.85;;
52494;SDS011;38405;53.212;5.660;2023-04-29T07:57:26;8.90;;;4.50;;
52494;SDS011;38405;53.212;5.660;2023-04-29T07:59:52;8.52;;;4.78;;
52494;SDS011;38405;53.212;5.660;2023-04-29T08:02:18;9.07;;;4.55;;
52494;SDS011;38405;53.212;5.660;2023-04-29T08:04:44;10.50;;;4.72;;
52494;SDS011;38405;53.212;5.660;2023-04-29T08:07:10;8.05;;;4.75;;
52494;SDS011;38405;53.212;5.660;2023-04-29T08:09:36;8.05;;;4.50;;
52494;SDS011;38405;53.212;5.660;2023-04-29T08:12:02;8.60;;;4.60;;
52494;SDS011;38405;53.212;5.660;2023-04-29T08:14:28;11.85;;;4.68;;
52494;SDS011;38405;53.212;5.660;2023-04-29T08:16:54;11.77;;;4.85;;
52494;SDS011;38405;53.212;5.660;2023-04-29T08:19:20;9.85;;;4.72;;
52494;SDS011;38405;53.212;5.660;2023-04-29T08:21:46;7.07;;;4.20;;
52494;SDS011;38405;53.212;5.660;2023-04-29T08:24:12;5.75;;;3.78;;
52494;SDS011;38405;53.212;5.660;2023-04-29T08:26:41;7.80;;;4.68;;
52494;SDS011;38405;53.212;5.660;2023-04-29T08:29:06;10.40;;;4.60;;
52494;SDS011;38405;53.212;5.660;2023-04-29T08:31:32;8.65;;;4.15;;
52494;SDS011;38405;53.212;5.660;2023-04-29T08:33:58;8.82;;;4.25;;
52494;SDS011;38405;53.212;5.660;2023-04-29T08:36:24;9.40;;;4.35;;
52494;SDS011;38405;53.212;5.660;2023-04-29T08:38:52;11.48;;;4.63;;
52494;SDS011;38405;53.212;5.660;2023-04-29T08:41:18;10.15;;;4.70;;
52494;SDS011;38405;53.212;5.660;2023-04-29T08:43:44;9.02;;;4.40;;
52494;SDS011;38405;53.212;5.660;2023-04-29T08:46:10;8.82;;;4.75;;
52494;SDS011;38405;53.212;5.660;2023-04-29T08:48:37;9.07;;;4.80;;
52494;SDS011;38405;53.212;5.660;2023-04-29T08:51:05;15.23;;;4.50;;
52494;SDS011;38405;53.212;5.660;2023-04-29T08:53:30;10.43;;;4.57;;
52494;SDS011;38405;53.212;5.660;2023-04-29T08:55:56;9.10;;;4.43;;
52494;SDS011;38405;53.212;5.660;2023-04-29T08:58:27;9.45;;;4.53;;
52494;SDS011;38405;53.212;5.660;2023-04-29T09:00:58;9.27;;;4.28;;
52494;SDS011;38405;53.212;5.660;2023-04-29T09:06:01;10.57;;;3.72;;
52494;SDS011;38405;53.212;5.660;2023-04-29T09:08:29;9.15;;;4.00;;
52494;SDS011;38405;53.212;5.660;2023-04-29T09:10:57;10.25;;;4.50;;
52494;SDS011;38405;53.212;5.660;2023-04-29T09:13:25;9.10;;;3.80;;
52494;SDS011;38405;53.212;5.660;2023-04-29T09:15:52;10.45;;;4.20;;
52494;SDS011;38405;53.212;5.660;2023-04-29T09:21:17;8.80;;;3.70;;
52494;SDS011;38405;53.212;5.660;2023-04-29T09:23:44;8.38;;;3.85;;
52494;SDS011;38405;53.212;5.660;2023-04-29T09:26:11;6.82;;;3.85;;
52494;SDS011;38405;53.212;5.660;2023-04-29T09:28:37;5.15;;;2.80;;
52494;SDS011;38405;53.212;5.660;2023-04-29T09:31:05;9.77;;;3.78;;
52494;SDS011;38405;53.212;5.660;2023-04-29T09:33:47;9.15;;;3.50;;
52494;SDS011;38405;53.212;5.660;2023-04-29T09:41:24;9.25;;;3.60;;
52494;SDS011;38405;53.212;5.660;2023-04-29T09:44:03;8.00;;;3.45;;
52494;SDS011;38405;53.212;5.660;2023-04-29T09:46:30;8.13;;;3.70;;
52494;SDS011;38405;53.212;5.660;2023-04-29T09:49:01;6.80;;;3.53;;
52494;SDS011;38405;53.212;5.660;2023-04-29T09:51:30;6.22;;;3.80;;
52494;SDS011;38405;53.212;5.660;2023-04-29T09:53:57;9.90;;;3.72;;
52494;SDS011;38405;53.212;5.660;2023-04-29T09:56:24;7.93;;;3.85;;
52494;SDS011;38405;53.212;5.660;2023-04-29T09:58:54;6.78;;;3.30;;
52494;SDS011;38405;53.212;5.660;2023-04-29T10:01:21;12.07;;;3.83;;
52494;SDS011;38405;53.212;5.660;2023-04-29T10:03:49;9.15;;;2.88;;
52494;SDS011;38405;53.212;5.660;2023-04-29T10:06:19;6.65;;;3.03;;
52494;SDS011;38405;53.212;5.660;2023-04-29T10:08:45;9.52;;;3.67;;
52494;SDS011;38405;53.212;5.660;2023-04-29T10:11:12;5.13;;;2.83;;
52494;SDS011;38405;53.212;5.660;2023-04-29T10:13:41;6.00;;;2.55;;
52494;SDS011;38405;53.212;5.660;2023-04-29T10:18:59;6.93;;;2.60;;
52494;SDS011;38405;53.212;5.660;2023-04-29T10:21:28;5.75;;;2.63;;
52494;SDS011;38405;53.212;5.660;2023-04-29T10:23:58;5.47;;;2.85;;
52494;SDS011;38405;53.212;5.660;2023-04-29T10:26:27;4.53;;;2.25;;
52494;SDS011;38405;53.212;5.660;2023-04-29T10:28:57;5.65;;;2.40;;
52494;SDS011;38405;53.212;5.660;2023-04-29T10:31:27;5.10;;;2.25;;
52494;SDS011;38405;53.212;5.660;2023-04-29T10:33:54;2.70;;;2.10;;
52494;SDS011;38405;53.212;5.660;2023-04-29T10:36:25;5.68;;;2.45;;
52494;SDS011;38405;53.212;5.660;2023-04-29T10:38:55;5.68;;;2.33;;
52494;SDS011;38405;53.212;5.660;2023-04-29T10:41:32;6.93;;;1.90;;
52494;SDS011;38405;53.212;5.660;2023-04-29T10:44:01;3.28;;;1.67;;
52494;SDS011;38405;53.212;5.660;2023-04-29T10:46:30;5.57;;;1.88;;
52494;SDS011;38405;53.212;5.660;2023-04-29T10:49:02;7.90;;;2.17;;
52494;SDS011;38405;53.212;5.660;2023-04-29T10:51:31;5.50;;;2.20;;
52494;SDS011;38405;53.212;5.660;2023-04-29T10:54:17;5.97;;;2.13;;
52494;SDS011;38405;53.212;5.660;2023-04-29T10:56:52;4.90;;;1.95;;
52494;SDS011;38405;53.212;5.660;2023-04-29T11:01:53;2.72;;;1.58;;
52494;SDS011;38405;53.212;5.660;2023-04-29T11:04:19;6.72;;;1.70;;
52494;SDS011;38405;53.212;5.660;2023-04-29T11:06:53;5.18;;;1.95;;
52494;SDS011;38405;53.212;5.660;2023-04-29T11:09:23;2.40;;;1.30;;
52494;SDS011;38405;53.212;5.660;2023-04-29T11:12:00;2.13;;;1.27;;
52494;SDS011;38405;53.212;5.660;2023-04-29T11:14:35;3.70;;;1.70;;
52494;SDS011;38405;53.212;5.660;2023-04-29T11:19:40;4.50;;;1.98;;
52494;SDS011;38405;53.212;5.660;2023-04-29T11:24:51;3.63;;;2.03;;
52494;SDS011;38405;53.212;5.660;2023-04-29T11:27:34;4.88;;;2.20;;
52494;SDS011;38405;53.212;5.660;2023-04-29T11:30:02;2.33;;;1.80;;
52494;SDS011;38405;53.212;5.660;2023-04-29T11:32:31;5.82;;;2.00;;
52494;SDS011;38405;53.212;5.660;2023-04-29T11:35:14;3.60;;;1.80;;
52494;SDS011;38405;53.212;5.660;2023-04-29T11:37:44;4.22;;;1.83;;
52494;SDS011;38405;53.212;5.660;2023-04-29T11:40:11;2.97;;;1.58;;
52494;SDS011;38405;53.212;5.660;2023-04-29T11:42:41;5.32;;;2.15;;
52494;SDS011;38405;53.212;5.660;2023-04-29T11:45:09;3.33;;;1.85;;
52494;SDS011;38405;53.212;5.660;2023-04-29T11:47:36;5.22;;;1.40;;
52494;SDS011;38405;53.212;5.660;2023-04-29T11:50:05;3.28;;;1.70;;
52494;SDS011;38405;53.212;5.660;2023-04-29T11:52:37;5.22;;;1.70;;
52494;SDS011;38405;53.212;5.660;2023-04-29T11:55:04;2.88;;;1.70;;
52494;SDS011;38405;53.212;5.660;2023-04-29T11:57:32;4.78;;;1.70;;
52494;SDS011;38405;53.212;5.660;2023-04-29T11:59:58;2.58;;;1.42;;
52494;SDS011;38405;53.212;5.660;2023-04-29T12:02:28;6.30;;;1.42;;
52494;SDS011;38405;53.212;5.660;2023-04-29T12:04:55;3.30;;;1.40;;
52494;SDS011;38405;53.212;5.660;2023-04-29T12:07:22;3.80;;;1.90;;
52494;SDS011;38405;53.212;5.660;2023-04-29T12:09:49;2.25;;;1.92;;
52494;SDS011;38405;53.212;5.660;2023-04-29T12:12:14;2.40;;;1.33;;
52494;SDS011;38405;53.212;5.660;2023-04-29T12:14:41;3.47;;;1.50;;
52494;SDS011;38405;53.212;5.660;2023-04-29T12:17:08;2.92;;;1.70;;
52494;SDS011;38405;53.212;5.660;2023-04-29T12:19:34;3.38;;;1.40;;
52494;SDS011;38405;53.212;5.660;2023-04-29T12:22:03;2.67;;;1.60;;
52494;SDS011;38405;53.212;5.660;2023-04-29T12:24:35;7.30;;;1.80;;
52494;SDS011;38405;53.212;5.660;2023-04-29T12:27:02;3.40;;;1.80;;
52494;SDS011;38405;53.212;5.660;2023-04-29T12:29:32;4.30;;;1.90;;
52494;SDS011;38405;53.212;5.660;2023-04-29T12:31:58;2.70;;;1.27;;
52494;SDS011;38405;53.212;5.660;2023-04-29T12:34:24;4.18;;;1.52;;
52494;SDS011;38405;53.212;5.660;2023-04-29T12:36:54;1.73;;;1.17;;
52494;SDS011;38405;53.212;5.660;2023-04-29T12:39:21;4.07;;;1.40;;
52494;SDS011;38405;53.212;5.660;2023-04-29T12:41:47;4.07;;;1.45;;
52494;SDS011;38405;53.212;5.660;2023-04-29T12:44:13;4.07;;;2.00;;
52494;SDS011;38405;53.212;5.660;2023-04-29T12:46:42;4.50;;;1.80;;
52494;SDS011;38405;53.212;5.660;2023-04-29T12:49:08;4.53;;;1.63;;
52494;SDS011;38405;53.212;5.660;2023-04-29T12:51:35;2.50;;;1.52;;
52494;SDS011;38405;53.212;5.660;2023-04-29T12:54:01;3.90;;;1.80;;
52494;SDS011;38405;53.212;5.660;2023-04-29T12:56:28;4.45;;;1.70;;
52494;SDS011;38405;53.212;5.660;2023-04-29T12:58:55;4.57;;;1.90;;
52494;SDS011;38405;53.212;5.660;2023-04-29T13:01:21;5.35;;;2.13;;
52494;SDS011;38405;53.212;5.660;2023-04-29T13:03:46;3.35;;;1.77;;
52494;SDS011;38405;53.212;5.660;2023-04-29T13:06:13;9.05;;;1.92;;
52494;SDS011;38405;53.212;5.660;2023-04-29T13:08:41;2.92;;;1.90;;
52494;SDS011;38405;53.212;5.660;2023-04-29T13:11:06;4.95;;;2.00;;
52494;SDS011;38405;53.212;5.660;2023-04-29T13:13:32;3.72;;;2.33;;
52494;SDS011;38405;53.212;5.660;2023-04-29T13:15:58;4.97;;;2.05;;
52494;SDS011;38405;53.212;5.660;2023-04-29T13:18:24;4.05;;;2.40;;
52494;SDS011;38405;53.212;5.660;2023-04-29T13:20:50;11.05;;;3.10;;
52494;SDS011;38405;53.212;5.660;2023-04-29T13:23:15;6.15;;;3.30;;
52494;SDS011;38405;53.212;5.660;2023-04-29T13:25:41;6.10;;;3.00;;
52494;SDS011;38405;53.212;5.660;2023-04-29T13:28:07;6.25;;;3.10;;
52494;SDS011;38405;53.212;5.660;2023-04-29T13:30:32;6.72;;;3.55;;
52494;SDS011;38405;53.212;5.660;2023-04-29T13:32:58;3.53;;;3.05;;
52494;SDS011;38405;53.212;5.660;2023-04-29T13:35:24;4.95;;;3.08;;
52494;SDS011;38405;53.212;5.660;2023-04-29T13:37:50;5.28;;;2.63;;
52494;SDS011;38405;53.212;5.660;2023-04-29T13:40:16;6.07;;;3.00;;
52494;SDS011;38405;53.212;5.660;2023-04-29T13:42:42;8.50;;;3.53;;
52494;SDS011;38405;53.212;5.660;2023-04-29T13:45:08;6.40;;;2.97;;
52494;SDS011;38405;53.212;5.660;2023-04-29T13:47:34;6.68;;;3.65;;
52494;SDS011;38405;53.212;5.660;2023-04-29T13:50:00;5.53;;;3.85;;
52494;SDS011;38405;53.212;5.660;2023-04-29T13:52:26;4.70;;;3.70;;
52494;SDS011;38405;53.212;5.660;2023-04-29T13:54:54;7.18;;;4.00;;
52494;SDS011;38405;53.212;5.660;2023-04-29T13:57:20;7.03;;;4.13;;
52494;SDS011;38405;53.212;5.660;2023-04-29T13:59:45;8.23;;;3.80;;
52494;SDS011;38405;53.212;5.660;2023-04-29T14:02:12;6.78;;;4.20;;
52494;SDS011;38405;53.212;5.660;2023-04-29T14:04:38;9.25;;;4.65;;
52494;SDS011;38405;53.212;5.660;2023-04-29T14:07:03;8.13;;;4.82;;
52494;SDS011;38405;53.212;5.660;2023-04-29T14:09:29;10.30;;;4.65;;
52494;SDS011;38405;53.212;5.660;2023-04-29T14:11:55;7.88;;;4.57;;
52494;SDS011;38405;53.212;5.660;2023-04-29T14:14:21;8.38;;;4.68;;
52494;SDS011;38405;53.212;5.660;2023-04-29T14:16:46;8.77;;;4.30;;
52494;SDS011;38405;53.212;5.660;2023-04-29T14:19:12;10.50;;;4.53;;
52494;SDS011;38405;53.212;5.660;2023-04-29T14:21:38;9.43;;;4.07;;
52494;SDS011;38405;53.212;5.660;2023-04-29T14:24:04;8.85;;;4.47;;
52494;SDS011;38405;53.212;5.660;2023-04-29T14:26:30;6.55;;;4.10;;
52494;SDS011;38405;53.212;5.660;2023-04-29T14:28:56;8.60;;;4.60;;
52494;SDS011;38405;53.212;5.660;2023-04-29T14:31:26;7.95;;;4.10;;
52494;SDS011;38405;53.212;5.660;2023-04-29T14:33:54;8.57;;;4.93;;
52494;SDS011;38405;53.212;5.660;2023-04-29T14:36:23;9.35;;;5.25;;
52494;SDS011;38405;53.212;5.660;2023-04-29T14:38:50;10.85;;;5.95;;
52494;SDS011;38405;53.212;5.660;2023-04-29T14:41:19;11.45;;;5.78;;
52494;SDS011;38405;53.212;5.660;2023-04-29T14:43:47;12.68;;;5.30;;
52494;SDS011;38405;53.212;5.660;2023-04-29T14:46:13;8.65;;;5.10;;
52494;SDS011;38405;53.212;5.660;2023-04-29T14:48:39;11.15;;;5.18;;
52494;SDS011;38405;53.212;5.660;2023-04-29T14:51:05;6.53;;;4.50;;
52494;SDS011;38405;53.212;5.660;2023-04-29T14:53:31;8.63;;;4.60;;
52494;SDS011;38405;53.212;5.660;2023-04-29T14:55:57;8.82;;;5.20;;
52494;SDS011;38405;53.212;5.660;2023-04-29T14:58:22;7.40;;;4.53;;
52494;SDS011;38405;53.212;5.660;2023-04-29T15:00:48;10.20;;;4.57;;
52494;SDS011;38405;53.212;5.660;2023-04-29T15:03:15;8.18;;;4.53;;
52494;SDS011;38405;53.212;5.660;2023-04-29T15:05:41;6.50;;;3.83;;
52494;SDS011;38405;53.212;5.660;2023-04-29T15:08:07;9.30;;;4.88;;
52494;SDS011;38405;53.212;5.660;2023-04-29T15:10:33;11.27;;;4.32;;
52494;SDS011;38405;53.212;5.660;2023-04-29T15:12:59;8.02;;;3.80;;
52494;SDS011;38405;53.212;5.660;2023-04-29T15:15:25;10.45;;;4.55;;
52494;SDS011;38405;53.212;5.660;2023-04-29T15:17:51;7.80;;;4.05;;